APG217 RPLL-RPVE
Flight info
| Callsign | APG217 |
|---|---|
| Flight time | N/A |
| Altitude | 25000 |
| Route | RDVXVERDE/06 VERDE W24 TAPER TAPE7B |
| Aircraft | A320/L-V/N |
Departure
| Time | N/A |
|---|---|
| Airport | Ninoy Aquino International Airport (RPLL) |
Arrival
| Time | 2026-05-08 07:18 |
|---|---|
| Airport | Godofredo P. Ramos Airport (RPVE) |
| Time | Latitude | Longitude | Altitude | Speed | Heading |
|---|---|---|---|---|---|
| 2026-05-08 07:14 | 11.87284 | 121.85043 | 2112 ft | 135 kts | 63° |
| 2026-05-08 07:14 | 11.87565 | 121.85607 | 2010 ft | 135 kts | 63° |
| 2026-05-08 07:15 | 11.87852 | 121.86186 | 1889 ft | 135 kts | 62° |
| 2026-05-08 07:15 | 11.88550 | 121.87588 | 1570 ft | 125 kts | 61° |
| 2026-05-08 07:15 | 11.88937 | 121.88363 | 1424 ft | 122 kts | 62° |
| 2026-05-08 07:15 | 11.89323 | 121.89138 | 1270 ft | 122 kts | 62° |
| 2026-05-08 07:16 | 11.89578 | 121.89649 | 1162 ft | 123 kts | 63° |
| 2026-05-08 07:16 | 11.89970 | 121.90434 | 1002 ft | 123 kts | 63° |
| 2026-05-08 07:16 | 11.90227 | 121.90950 | 881 ft | 122 kts | 64° |
| 2026-05-08 07:16 | 11.90353 | 121.91202 | 826 ft | 121 kts | 64° |
| 2026-05-08 07:17 | 11.90483 | 121.91463 | 782 ft | 122 kts | 64° |
| 2026-05-08 07:17 | 11.90742 | 121.91983 | 682 ft | 122 kts | 64° |
| 2026-05-08 07:18 | 11.92789 | 121.96070 | 12 ft | 13 kts | 64° |
| 2026-05-08 07:18 | 11.92794 | 121.96121 | 12 ft | 10 kts | 118° |
| 2026-05-08 07:18 | 11.92753 | 121.96148 | 12 ft | 11 kts | 159° |
| 2026-05-08 07:19 | 11.92705 | 121.96170 | 12 ft | 11 kts | 153° |
| 2026-05-08 07:19 | 11.92633 | 121.96224 | 12 ft | 8 kts | 98° |
| 2026-05-08 07:19 | 11.92646 | 121.96265 | 12 ft | 9 kts | 61° |
| 2026-05-08 07:19 | 11.92667 | 121.96327 | 12 ft | 3 kts | 121° |
| 2026-05-08 07:20 | 11.92654 | 121.96337 | 12 ft | 1 kts | 155° |
| 2026-05-08 07:20 | 11.92645 | 121.96342 | 12 ft | 0 kts | 154° |
| 2026-05-08 07:20 | 11.92641 | 121.96343 | 12 ft | 0 kts | 153° |
| 2026-05-08 07:20 | 11.92638 | 121.96345 | 12 ft | 0 kts | 153° |